Dati Storici

Data ora Umidita' aria (%) Temperatura aria (°C) Rad globale (W/m²) Gonioanemometro (°) Tacoanemometro (m/s) Pioggia (mm)
13-06-2020 19:30 65.8 % 23.208 -71.744 1.753 0 0
13-06-2020 19:20 63.4 % 23.377 -52.794 3.173 0 0
13-06-2020 19:10 64.2 % 23.708 -57.457 0.026 0 0
13-06-2020 19:00 65.2 % 23.584 -66.02 1.828 0 0
13-06-2020 18:50 66.8 % 23.866 -71.192 1.323 0 0
13-06-2020 18:40 66.1 % 23.91 -66.567 3.702 0 0
13-06-2020 18:30 66.4 % 24.184 -61.706 2.505 0 0
13-06-2020 18:20 65.6 % 23.752 -66.792 3.662 0 0
13-06-2020 18:10 64.2 % 23.808 -68.943 3.684 0 0
13-06-2020 18:00 66.2 % 24.494 -67.663 3.728 0 0
13-06-2020 17:50 64 % 24.931 -72.015 0.772 0 0
13-06-2020 17:40 63.4 % 25.582 -64.677 0.936 0 0
13-06-2020 17:30 64.1 % 24.771 -58.742 3.184 0 0
13-06-2020 17:20 64.9 % 24.612 -76.531 2.536 0 0
13-06-2020 17:10 64.7 % 24.864 -72.529 1.691 0 0
13-06-2020 17:00 66.5 % 24.641 -65.398 2.75 0 0
13-06-2020 16:50 63.1 % 24.906 -74.181 0.653 0 0
13-06-2020 16:40 61.4 % 24.605 -66.521 3.686 0 0
13-06-2020 16:30 60.9 % 25.491 -69.932 1.863 0 0
13-06-2020 16:20 60 % 25.483 -64.42 4.446 0 0

I dati sono presentati in modo automatico a scopo informativo. In seguito a verifica i dati possono subire modifiche o essere invalidati e non riportati negli archivi definitivi.